ADDS METAR Data INFO
IDs: Format: Raw Decoded Include TAF

Data at: 1052 UTC 20 Sep 2017

KGVT 201035Z AUTO 17011G18KT 10SM CLR 27/23 A2988 RMK AO2
KGVT 201015Z AUTO 17012KT 10SM CLR 27/23 A2987 RMK AO2
KGVT 200955Z AUTO 17011KT 10SM CLR 27/23 A2987 RMK AO2
KGVT 200935Z AUTO 18010KT 10SM CLR 27/23 A2986 RMK AO2
KGVT 200915Z AUTO 17010KT 10SM CLR 27/23 A2986 RMK AO2
KGVT 200855Z AUTO 17008KT 10SM CLR 27/23 A2986 RMK AO2
KGVT 200835Z AUTO 17008KT 10SM CLR 27/23 A2987 RMK AO2
KGVT 200815Z AUTO 18008KT 10SM CLR 27/23 A2986 RMK AO2
KGVT 200755Z AUTO 17011G14KT 10SM CLR 28/24 A2986 RMK AO2
KGVT 200735Z AUTO 17009KT 10SM CLR 28/24 A2986 RMK AO2
KGVT 200715Z AUTO 16012KT 10SM CLR 28/24 A2986 RMK AO2
KGVT 200655Z AUTO 16010KT 10SM CLR 28/24 A2986 RMK AO2
KGVT 200635Z AUTO 16012KT 10SM CLR 28/23 A2985 RMK AO2
KGVT 200615Z AUTO 15010KT 10SM CLR 28/23 A2986 RMK AO2
KGVT 200555Z AUTO 15009KT 10SM CLR 28/23 A2985 RMK AO2
KGVT 200535Z AUTO 14007KT 10SM CLR 28/23 A2985 RMK AO2
KGVT 200515Z AUTO 15006KT 10SM CLR 28/23 A2986 RMK AO2
KGVT 200455Z AUTO 16006KT 10SM SCT070 28/23 A2987 RMK AO2
KGVT 200435Z AUTO 16005KT 10SM CLR 28/23 A2987 RMK AO2
KGVT 200415Z AUTO 17006KT 10SM CLR 28/23 A2987 RMK AO2
KGVT 200355Z AUTO 16007KT 10SM CLR 28/23 A2987 RMK AO2
KGVT 200335Z AUTO 17005KT 10SM CLR 28/23 A2987 RMK AO2 LTG DSNT W
KGVT 200315Z AUTO 16007KT 10SM CLR 28/23 A2987 RMK AO2 LTG DSNT W
KGVT 200255Z AUTO 16006KT 10SM CLR 29/23 A2987 RMK AO2
KGVT 200235Z AUTO 16006KT 10SM CLR 29/23 A2987 RMK AO2
KGVT 200215Z AUTO 15004KT 10SM CLR 29/22 A2986 RMK AO2 LTG DSNT W
KGVT 200155Z AUTO 14006KT 10SM CLR 30/22 A2984 RMK AO2
KGVT 200135Z AUTO 14006KT 10SM SCT060 29/22 A2983 RMK AO2
KGVT 200115Z AUTO 14005KT 10SM SCT060 29/22 A2983 RMK AO2
KGVT 200055Z AUTO 14006KT 10SM CLR 30/22 A2983 RMK AO2
KGVT 200035Z AUTO 14005KT 10SM CLR 31/21 A2982 RMK AO2
KGVT 200015Z AUTO 14007KT 10SM CLR 31/21 A2981 RMK AO2
KGVT 192355Z AUTO 15007KT 10SM CLR 32/20 A2980 RMK AO2
KGVT 192335Z AUTO 15008KT 10SM CLR 33/20 A2980 RMK AO2
KGVT 192315Z AUTO 15009KT 10SM CLR 34/19 A2980 RMK AO2
KGVT 192255Z AUTO 14011KT 10SM CLR 35/20 A2980 RMK AO2
KGVT 192235Z AUTO 16009KT 10SM CLR 35/20 A2980 RMK AO2
KGVT 192215Z AUTO 17009G15KT 10SM CLR 35/20 A2980 RMK AO2
KGVT 192155Z AUTO 18013KT 10SM SCT050 35/20 A2981 RMK AO2
KGVT 192135Z AUTO 18011KT 10SM SCT050 35/20 A2982 RMK AO2
KGVT 192115Z AUTO 16011G15KT 10SM SCT065 36/20 A2982 RMK AO2
KGVT 192055Z AUTO 17011G14KT 10SM SCT050 SCT065 35/20 A2984 RMK AO2
KGVT 192035Z AUTO 18011G16KT 10SM SCT050 SCT070 35/20 A2985 RMK AO2
KGVT 192015Z AUTO 17009KT 10SM SCT048 SCT055 SCT070 35/20 A2985 RMK AO2
KGVT 191955Z AUTO 18010G18KT 10SM BKN048 35/21 A2986 RMK AO2
KGVT 191935Z AUTO 17012G17KT 10SM SCT042 BKN050 35/21 A2987 RMK AO2
KGVT 191915Z AUTO 18009G15KT 10SM BKN042 BKN049 35/21 A2988 RMK AO2
KGVT 191850Z AUTO 19010G14KT 10SM SCT042 SCT049 34/21 A2989 RMK AO2
KGVT 191835Z AUTO 17010G15KT 10SM BKN040 BKN046 33/21 A2990 RMK AO2
KGVT 191815Z AUTO 19013G17KT 10SM BKN038 33/21 A2991 RMK AO2
KGVT 191755Z AUTO 18012G15KT 10SM BKN036 34/22 A2992 RMK AO2
KGVT 191735Z AUTO 21008G15KT 10SM OVC034 32/22 A2993 RMK AO2
KGVT 191715Z AUTO 19011KT 10SM BKN032 33/22 A2994 RMK AO2
KGVT 191655Z AUTO 19012G15KT 10SM SCT030 32/22 A2994 RMK AO2
KGVT 191635Z AUTO 20009KT 10SM SCT028 31/22 A2995 RMK AO2
KGVT 191615Z AUTO 19012G20KT 10SM SCT026 31/22 A2995 RMK AO2
KGVT 191555Z AUTO 21009KT 10SM SCT019 31/22 A2995 RMK AO2
KGVT 191535Z AUTO 20010KT 10SM BKN017 30/22 A2996 RMK AO2
KGVT 191515Z AUTO 20014KT 10SM OVC017 28/23 A2996 RMK AO2
KGVT 191455Z AUTO 19010G17KT 10SM OVC015 28/23 A2996 RMK AO2 LTG DSNT N
KGVT 191435Z AUTO 19014G18KT 10SM OVC013 28/23 A2997 RMK AO2
KGVT 191415Z AUTO 20010KT 10SM OVC013 27/23 A2996 RMK AO2
KGVT 191355Z AUTO 19010KT 10SM OVC013 27/23 A2996 RMK AO2
KGVT 191335Z AUTO 20008KT 10SM OVC013 26/23 A2996 RMK AO2
KGVT 191315Z AUTO 19008KT 10SM OVC011 26/23 A2995 RMK AO2
KGVT 191255Z AUTO 19007KT 10SM OVC011 26/23 A2995 RMK AO2
KGVT 191235Z AUTO 19009KT 7SM OVC011 26/23 A2994 RMK AO2
KGVT 191215Z AUTO 18009KT 7SM OVC009 26/23 A2994 RMK AO2
KGVT 191155Z AUTO 18008KT 7SM OVC005 25/24 A2994 RMK AO2
KGVT 191135Z AUTO 17009KT 7SM OVC005 25/24 A2994 RMK AO2
KGVT 191115Z AUTO 17007KT 7SM OVC007 25/23 A2994 RMK AO2
KGVT 191055Z AUTO 17007KT 10SM OVC007 25/23 A2993 RMK AO2
KGVT 191035Z AUTO 17008KT 10SM OVC007 25/23 A2993 RMK AO2
KGVT 191015Z AUTO 16005KT 10SM BKN011 24/23 A2993 RMK AO2
KGVT 190955Z AUTO 16005KT 10SM SCT011 23/23 A2993 RMK AO2
KGVT 190935Z AUTO 17003KT 10SM CLR 24/23 A2993 RMK AO2
KGVT 190915Z AUTO 16004KT 10SM CLR 24/23 A2993 RMK AO2
KGVT 190855Z AUTO 16004KT 10SM CLR 23/23 A2993 RMK AO2
KGVT 190835Z AUTO 00000KT 10SM CLR 23/23 A2993 RMK AO2
KGVT 190815Z AUTO 00000KT 10SM CLR 23/23 A2992 RMK AO2
KGVT 190755Z AUTO 13003KT 10SM CLR 23/22 A2992 RMK AO2
KGVT 190735Z AUTO 00000KT 10SM CLR 23/23 A2992 RMK AO2
KGVT 190715Z AUTO 13003KT 10SM CLR 23/22 A2992 RMK AO2
KGVT 190655Z AUTO 00000KT 10SM CLR 23/22 A2993 RMK AO2
KGVT 190635Z AUTO 00000KT 10SM CLR 25/23 A2993 RMK AO2
KGVT 190615Z AUTO 17003KT 10SM CLR 25/22 A2993 RMK AO2
KGVT 190555Z AUTO 16004KT 10SM CLR 25/22 A2993 RMK AO2
KGVT 190535Z AUTO 17005KT 10SM CLR 25/22 A2994 RMK AO2
KGVT 190515Z AUTO 15004KT 10SM CLR 26/22 A2995 RMK AO2
KGVT 190455Z AUTO 16005KT 10SM CLR 26/22 A2995 RMK AO2
KGVT 190435Z AUTO 16005KT 10SM CLR 26/22 A2995 RMK AO2
KGVT 190415Z AUTO 16006KT 10SM CLR 27/22 A2995 RMK AO2
KGVT 190355Z AUTO 16008KT 10SM CLR 27/22 A2995 RMK AO2
KGVT 190335Z AUTO 16008KT 10SM CLR 28/22 A2995 RMK AO2
KGVT 190315Z AUTO 16007KT 10SM CLR 27/22 A2995 RMK AO2
KGVT 190255Z AUTO 14005KT 10SM CLR 27/22 A2995 RMK AO2
KGVT 190235Z AUTO 14006KT 10SM CLR 27/22 A2994 RMK AO2
KGVT 190215Z AUTO 14006KT 10SM CLR 27/21 A2994 RMK AO2
KGVT 190155Z AUTO 13005KT 10SM CLR 27/21 A2994 RMK AO2
KGVT 190135Z AUTO 13004KT 10SM CLR 27/21 A2994 RMK AO2
KGVT 190115Z AUTO 11004KT 10SM CLR 28/20 A2993 RMK AO2
KGVT 190055Z AUTO 11004KT 10SM CLR 28/20 A2992 RMK AO2
KGVT 190035Z AUTO 00000KT 10SM CLR 28/20 A2991 RMK AO2
KGVT 190015Z AUTO 00000KT 10SM CLR 30/20 A2991 RMK AO2
KGVT 182355Z AUTO 14003KT 10SM CLR 31/19 A2991 RMK AO2
KGVT 182335Z AUTO 14004KT 10SM CLR 32/18 A2992 RMK AO2
KGVT 182315Z AUTO 13004KT 10SM CLR 33/17 A2992 RMK AO2
KGVT 182255Z AUTO 10006KT 10SM CLR 33/18 A2992 RMK AO2